createdAt,value
2022-12-11T00:01:13.369Z,18.27
2022-12-11T00:04:02.540Z,16.67
2022-12-11T00:06:50.587Z,16.02
2022-12-11T00:09:37.988Z,17.42
2022-12-11T00:12:27.659Z,16.23
2022-12-11T00:15:14.613Z,15.20
2022-12-11T00:18:01.646Z,16.50
2022-12-11T00:20:50.753Z,16.65
2022-12-11T00:23:40.810Z,16.90
2022-12-11T00:26:27.592Z,16.98
2022-12-11T00:29:14.944Z,16.35
2022-12-11T00:32:01.970Z,16.13
2022-12-11T00:34:48.820Z,15.65
2022-12-11T00:37:35.999Z,17.52
2022-12-11T00:40:25.572Z,16.25
2022-12-11T00:43:12.748Z,15.25
2022-12-11T00:45:59.631Z,15.95
2022-12-11T00:48:46.718Z,16.95
2022-12-11T00:51:33.660Z,16.10
2022-12-11T00:54:20.528Z,15.68
2022-12-11T00:57:07.322Z,16.25
2022-12-11T00:59:57.083Z,16.45
2022-12-11T01:02:43.994Z,15.00
2022-12-11T01:05:30.884Z,15.48
2022-12-11T01:08:22.454Z,15.80
2022-12-11T01:11:14.067Z,16.75
2022-12-11T01:14:01.077Z,15.77
2022-12-11T01:16:48.075Z,15.35
2022-12-11T01:19:34.946Z,14.55
2022-12-11T01:22:22.146Z,14.55
2022-12-11T01:25:10.486Z,15.85
2022-12-11T01:27:57.651Z,15.68
2022-12-11T01:30:46.183Z,15.15
2022-12-11T01:34:02.762Z,15.30
2022-12-11T01:36:52.262Z,14.05
2022-12-11T01:39:39.454Z,15.30
2022-12-11T01:42:26.498Z,15.15
2022-12-11T01:45:27.081Z,13.70
2022-12-11T01:48:23.117Z,15.32
2022-12-11T01:51:10.088Z,15.32
2022-12-11T01:54:01.379Z,14.52
2022-12-11T01:56:50.386Z,14.18
2022-12-11T01:59:39.546Z,15.00
2022-12-11T02:02:28.546Z,15.82
2022-12-11T02:05:15.526Z,16.02
2022-12-11T02:08:03.388Z,15.32
2022-12-11T02:11:10.952Z,16.20
2022-12-11T02:14:08.465Z,16.15
2022-12-11T02:17:07.850Z,14.50
2022-12-11T02:20:05.873Z,13.68
2022-12-11T02:23:30.401Z,16.23
2022-12-11T02:26:17.169Z,15.60
2022-12-11T02:29:09.375Z,15.32
2022-12-11T02:32:05.777Z,15.23
2022-12-11T02:35:01.470Z,13.82
2022-12-11T02:37:52.569Z,14.25
2022-12-11T02:40:41.104Z,13.95
2022-12-11T02:43:30.797Z,14.65
2022-12-11T02:46:22.322Z,16.77
2022-12-11T02:49:13.221Z,14.50
2022-12-11T02:52:01.679Z,15.32
2022-12-11T02:54:49.760Z,13.77
2022-12-11T02:57:44.535Z,14.18
2022-12-11T03:00:31.823Z,15.00
2022-12-11T03:03:18.792Z,16.48
2022-12-11T03:06:06.170Z,15.77
2022-12-11T03:08:55.140Z,13.88
2022-12-11T03:11:42.104Z,15.93
2022-12-11T03:14:28.923Z,15.25
2022-12-11T03:17:37.972Z,15.70
2022-12-11T03:20:37.024Z,15.52
2022-12-11T03:23:31.215Z,14.10
2022-12-11T03:26:19.629Z,14.80
2022-12-11T03:29:20.416Z,16.20
2022-12-11T03:32:20.370Z,15.65
2022-12-11T03:35:13.917Z,14.07
2022-12-11T03:38:05.669Z,14.27
2022-12-11T03:40:55.261Z,13.15
2022-12-11T03:43:42.241Z,13.90
2022-12-11T03:46:34.711Z,14.57
2022-12-11T03:49:24.753Z,14.30
2022-12-11T03:52:13.102Z,14.73
2022-12-11T03:55:03.803Z,13.53
2022-12-11T03:57:50.684Z,13.27
2022-12-11T04:00:40.448Z,14.70
2022-12-11T04:03:27.318Z,14.45
2022-12-11T04:06:14.212Z,15.57
2022-12-11T04:09:01.244Z,14.43
2022-12-11T04:11:48.045Z,15.73
2022-12-11T04:14:58.804Z,13.55
2022-12-11T04:18:04.179Z,13.40
2022-12-11T04:21:12.552Z,14.20
2022-12-11T04:24:17.649Z,14.45
2022-12-11T04:27:04.534Z,13.13
2022-12-11T04:29:51.437Z,14.82
2022-12-11T04:32:38.440Z,14.27
2022-12-11T04:35:25.406Z,15.80
2022-12-11T04:38:12.179Z,14.63
2022-12-11T04:41:05.061Z,16.13
2022-12-11T04:43:51.992Z,14.27
2022-12-11T04:46:38.901Z,13.32
2022-12-11T04:49:25.907Z,14.02
2022-12-11T04:52:15.092Z,16.08
2022-12-11T04:55:04.441Z,14.50
2022-12-11T05:00:43.318Z,12.82
2022-12-11T05:03:30.140Z,15.25
2022-12-11T05:06:19.256Z,15.20
2022-12-11T05:09:06.095Z,14.00
2022-12-11T05:11:53.394Z,13.48
2022-12-11T05:14:40.330Z,13.75
2022-12-11T05:17:38.903Z,15.30
2022-12-11T05:20:25.743Z,14.93
2022-12-11T05:23:12.714Z,14.95
2022-12-11T05:26:04.165Z,14.88
2022-12-11T05:28:55.115Z,14.70
2022-12-11T05:31:41.975Z,15.18
2022-12-11T05:34:28.873Z,13.85
2022-12-11T05:37:15.706Z,15.13
2022-12-11T05:40:02.583Z,15.52
2022-12-11T05:42:58.381Z,14.52
2022-12-11T05:45:45.148Z,14.77
2022-12-11T05:48:31.962Z,14.75
2022-12-11T05:51:19.010Z,15.43
2022-12-11T05:54:08.862Z,14.52
2022-12-11T05:56:58.114Z,14.40
2022-12-11T05:59:45.258Z,14.48
2022-12-11T06:02:35.127Z,14.45
2022-12-11T06:05:21.934Z,13.65
2022-12-11T06:08:09.084Z,14.38
2022-12-11T06:10:57.483Z,15.73
2022-12-11T06:13:44.311Z,13.70
2022-12-11T06:16:31.969Z,17.73
2022-12-11T06:19:24.861Z,14.32
2022-12-11T06:22:14.484Z,17.73
2022-12-11T06:25:03.242Z,14.05
2022-12-11T06:27:50.422Z,13.15
2022-12-11T06:30:39.482Z,14.70
2022-12-11T06:36:17.693Z,15.00
2022-12-11T06:39:04.679Z,15.63
2022-12-11T06:41:51.467Z,14.13
2022-12-11T06:44:40.845Z,14.10
2022-12-11T06:50:17.341Z,14.00
2022-12-11T06:53:04.199Z,13.95
2022-12-11T06:55:50.991Z,13.85
2022-12-11T06:58:44.322Z,14.73
2022-12-11T07:01:31.209Z,14.18
2022-12-11T07:04:18.007Z,14.30
2022-12-11T07:07:05.010Z,13.73
2022-12-11T07:09:51.823Z,14.98
2022-12-11T07:12:41.668Z,16.20
2022-12-11T07:15:28.413Z,14.80
2022-12-11T07:18:15.187Z,14.55
2022-12-11T07:21:01.994Z,15.75
2022-12-11T07:23:50.029Z,14.68
2022-12-11T07:26:38.796Z,15.35
2022-12-11T07:29:25.559Z,14.93
2022-12-11T07:39:35.802Z,14.60
2022-12-11T07:51:31.021Z,14.38
2022-12-11T07:58:23.488Z,15.77
2022-12-11T08:01:33.302Z,15.60
2022-12-11T08:12:31.441Z,15.43
2022-12-11T08:19:46.253Z,15.73
2022-12-11T08:22:59.477Z,16.08
2022-12-11T08:47:56.273Z,16.90
2022-12-11T08:54:53.137Z,15.68
2022-12-11T09:05:06.673Z,14.98
2022-12-11T09:11:58.475Z,14.82
2022-12-11T09:16:09.598Z,12.98
2022-12-11T09:26:25.765Z,15.93
2022-12-11T09:37:28.501Z,18.08
2022-12-11T09:40:41.829Z,16.67
2022-12-11T09:47:23.075Z,16.58
2022-12-11T09:51:10.182Z,13.90
2022-12-11T09:58:10.368Z,15.10
2022-12-11T10:01:43.686Z,17.45
2022-12-11T10:05:18.705Z,16.35
2022-12-11T10:09:02.099Z,15.02
2022-12-11T10:12:00.589Z,13.60
2022-12-11T10:15:42.869Z,15.60
2022-12-11T10:25:36.429Z,14.55
2022-12-11T10:28:37.120Z,15.57
2022-12-11T10:42:33.004Z,13.38
2022-12-11T11:00:51.331Z,13.70
2022-12-11T11:08:00.442Z,13.88
2022-12-11T11:11:07.040Z,14.88
2022-12-11T11:14:20.438Z,13.98
2022-12-11T11:17:22.412Z,13.48
2022-12-11T11:23:34.363Z,14.35
2022-12-11T11:27:11.158Z,13.57
2022-12-11T11:30:15.142Z,14.15
2022-12-11T11:33:29.640Z,13.15
2022-12-11T11:36:35.848Z,12.75
2022-12-11T11:40:21.495Z,13.00
2022-12-11T11:47:58.496Z,15.23
2022-12-11T11:58:25.277Z,13.80
2022-12-11T12:01:50.441Z,12.55
2022-12-11T12:04:44.627Z,13.18
2022-12-11T12:07:44.451Z,12.68
2022-12-11T12:11:00.679Z,12.70
2022-12-11T12:14:12.841Z,12.35
2022-12-11T12:17:23.403Z,13.15
2022-12-11T12:20:26.266Z,12.65
2022-12-11T12:23:41.421Z,12.85
2022-12-11T12:26:28.399Z,13.40
2022-12-11T12:29:24.854Z,13.02
2022-12-11T12:32:28.376Z,12.23
2022-12-11T12:35:33.547Z,11.05
2022-12-11T12:38:48.674Z,12.23
2022-12-11T12:41:54.154Z,11.35
2022-12-11T12:44:53.935Z,12.18
2022-12-11T12:47:42.486Z,11.50
2022-12-11T12:50:38.724Z,11.88
2022-12-11T12:53:32.686Z,11.57
2022-12-11T12:56:20.980Z,11.48
2022-12-11T12:59:20.816Z,12.05
2022-12-11T13:02:14.139Z,12.38
2022-12-11T13:05:09.158Z,11.80
2022-12-11T13:07:58.347Z,12.13
2022-12-11T13:10:47.561Z,11.55
2022-12-11T13:13:54.495Z,11.50
2022-12-11T13:16:46.804Z,11.55
2022-12-11T13:19:42.295Z,12.07
2022-12-11T13:22:29.804Z,10.55
2022-12-11T13:25:31.429Z,11.70
2022-12-11T13:28:29.132Z,11.40
2022-12-11T13:31:15.989Z,12.32
2022-12-11T13:34:36.271Z,12.35
2022-12-11T13:37:41.877Z,10.98
2022-12-11T13:40:37.229Z,11.02
2022-12-11T13:43:29.786Z,11.27
2022-12-11T13:46:24.544Z,12.48
2022-12-11T13:49:30.668Z,11.95
2022-12-11T13:52:20.225Z,12.30
2022-12-11T13:55:23.628Z,11.82
2022-12-11T13:58:18.743Z,13.82
2022-12-11T14:01:16.260Z,13.23
2022-12-11T14:07:33.528Z,13.07
2022-12-11T14:10:31.175Z,14.05
2022-12-11T14:13:25.990Z,13.20
2022-12-11T14:16:22.620Z,12.60
2022-12-11T14:19:10.936Z,13.52
2022-12-11T14:28:48.429Z,14.13
2022-12-11T14:31:42.036Z,13.35
2022-12-11T14:34:35.274Z,14.40
2022-12-11T14:37:23.671Z,13.48
2022-12-11T14:40:18.670Z,14.47
2022-12-11T14:43:14.191Z,13.88
2022-12-11T14:46:09.315Z,14.55
2022-12-11T14:49:01.507Z,15.02
2022-12-11T14:51:51.270Z,13.00
2022-12-11T14:54:41.414Z,13.68
2022-12-11T14:57:29.552Z,14.25
2022-12-11T15:00:30.368Z,11.95
2022-12-11T15:03:19.274Z,12.93
2022-12-11T15:06:29.883Z,12.82
2022-12-11T15:09:19.490Z,11.95
2022-12-11T15:12:21.954Z,12.90
2022-12-11T15:15:15.266Z,14.13
2022-12-11T15:18:04.296Z,13.30
2022-12-11T15:20:53.335Z,12.45
2022-12-11T15:23:47.825Z,14.07
2022-12-11T15:26:41.329Z,12.43
2022-12-11T15:29:35.520Z,13.05
2022-12-11T15:32:22.875Z,12.27
2022-12-11T15:35:25.120Z,12.82
2022-12-11T15:38:28.331Z,12.35
2022-12-11T15:41:18.740Z,12.20
2022-12-11T15:44:05.760Z,12.50
2022-12-11T15:46:52.654Z,12.63
2022-12-11T15:49:39.458Z,13.23
2022-12-11T15:52:26.440Z,12.80
2022-12-11T15:55:13.916Z,13.25
2022-12-11T15:58:15.381Z,12.68
2022-12-11T16:01:02.512Z,12.07
2022-12-11T16:03:50.402Z,12.57
2022-12-11T16:06:37.986Z,12.70
2022-12-11T16:09:24.740Z,12.80
2022-12-11T16:12:13.382Z,13.52
2022-12-11T16:15:00.127Z,13.40
2022-12-11T16:17:46.969Z,13.05
2022-12-11T16:20:35.232Z,13.00
2022-12-11T16:23:24.221Z,13.55
2022-12-11T16:26:11.730Z,13.48
2022-12-11T16:28:58.599Z,15.18
2022-12-11T16:31:45.483Z,14.13
2022-12-11T16:34:32.404Z,14.98
2022-12-11T16:37:19.436Z,13.80
2022-12-11T16:40:06.716Z,13.13
2022-12-11T16:42:54.229Z,14.98
2022-12-11T16:45:43.077Z,14.55
2022-12-11T16:48:29.930Z,14.65
2022-12-11T16:51:17.204Z,13.70
2022-12-11T16:54:04.846Z,14.18
2022-12-11T16:56:54.379Z,14.85
2022-12-11T16:59:41.255Z,13.52
2022-12-11T17:02:28.176Z,13.38
2022-12-11T17:05:15.161Z,13.35
2022-12-11T17:08:05.487Z,15.30
2022-12-11T17:10:55.661Z,12.55
2022-12-11T17:13:44.565Z,14.30
2022-12-11T17:16:32.367Z,13.57
2022-12-11T17:19:22.134Z,12.88
2022-12-11T17:22:11.078Z,14.55
2022-12-11T17:24:58.093Z,13.90
2022-12-11T17:27:45.163Z,12.18
2022-12-11T17:30:32.049Z,13.45
2022-12-11T17:33:18.917Z,11.25
2022-12-11T17:36:07.129Z,11.50
2022-12-11T17:38:54.315Z,11.95
2022-12-11T17:41:46.610Z,12.00
2022-12-11T17:44:38.297Z,12.50
2022-12-11T17:47:25.269Z,13.20
2022-12-11T17:50:12.115Z,11.82
2022-12-11T17:52:59.129Z,12.25
2022-12-11T17:55:46.842Z,10.70
2022-12-11T17:58:39.548Z,11.65
2022-12-11T18:01:26.430Z,11.35
2022-12-11T18:04:13.555Z,10.48
2022-12-11T18:07:00.651Z,11.45
2022-12-11T18:09:47.783Z,10.20
2022-12-11T18:12:34.769Z,10.88
2022-12-11T18:15:21.685Z,11.90
2022-12-11T18:18:11.185Z,12.23
2022-12-11T18:20:58.785Z,11.68
2022-12-11T18:23:48.193Z,12.50
2022-12-11T18:26:36.059Z,12.75
2022-12-11T18:29:22.864Z,11.23
2022-12-11T18:32:10.111Z,10.15
2022-12-11T18:34:59.282Z,11.57
2022-12-11T18:37:48.591Z,12.27
2022-12-11T18:43:25.818Z,11.13
2022-12-11T18:46:17.553Z,10.52
2022-12-11T18:49:04.582Z,10.93
2022-12-11T18:51:52.757Z,11.68
2022-12-11T18:54:39.770Z,11.93
2022-12-11T18:57:26.858Z,11.23
2022-12-11T19:00:14.453Z,10.40
2022-12-11T19:03:02.038Z,10.65
2022-12-11T19:05:48.826Z,11.23
2022-12-11T19:08:36.071Z,11.50
2022-12-11T19:11:25.006Z,10.63
2022-12-11T19:14:14.445Z,12.00
2022-12-11T19:17:02.047Z,11.57
2022-12-11T19:19:49.184Z,11.48
2022-12-11T19:22:36.374Z,10.98
2022-12-11T19:25:26.410Z,11.48
2022-12-11T19:28:15.180Z,12.00
2022-12-11T19:31:08.284Z,10.13
2022-12-11T19:33:56.149Z,10.98
2022-12-11T19:36:44.589Z,11.90
2022-12-11T19:39:31.534Z,10.73
2022-12-11T19:42:29.018Z,10.38
2022-12-11T19:45:16.155Z,9.82
2022-12-11T19:48:04.671Z,10.40
2022-12-11T19:50:51.565Z,11.35
2022-12-11T19:53:41.334Z,10.32
2022-12-11T19:56:28.937Z,11.18
2022-12-11T19:59:16.910Z,10.77
2022-12-11T20:02:03.855Z,11.02
2022-12-11T20:04:50.837Z,10.77
2022-12-11T20:07:38.975Z,11.65
2022-12-11T20:10:27.321Z,11.10
2022-12-11T20:13:19.461Z,10.90
2022-12-11T20:16:10.032Z,11.63
2022-12-11T20:18:57.636Z,11.75
2022-12-11T20:21:44.672Z,11.40
2022-12-11T20:24:31.712Z,11.93
2022-12-11T20:27:21.069Z,10.15
2022-12-11T20:32:54.975Z,11.50
2022-12-11T20:35:42.662Z,11.43
2022-12-11T20:38:34.290Z,10.48
2022-12-11T20:41:24.034Z,10.48
2022-12-11T20:44:20.223Z,11.38
2022-12-11T20:47:07.356Z,11.35
2022-12-11T20:49:59.547Z,10.80
2022-12-11T20:52:46.495Z,11.63
2022-12-11T20:55:33.598Z,11.60
2022-12-11T20:58:21.067Z,10.75
2022-12-11T21:01:15.402Z,11.18
2022-12-11T21:04:02.460Z,11.48
2022-12-11T21:06:55.501Z,11.10
2022-12-11T21:09:42.579Z,12.15
2022-12-11T21:12:31.669Z,14.65
2022-12-11T21:18:06.402Z,13.02
2022-12-11T21:20:56.334Z,11.98
2022-12-11T21:23:43.236Z,13.18
2022-12-11T21:26:34.412Z,12.18
2022-12-11T21:29:22.544Z,13.23
2022-12-11T21:32:14.011Z,12.40
2022-12-11T21:35:01.085Z,10.82
2022-12-11T21:37:48.599Z,11.82
2022-12-11T21:40:35.926Z,12.20
2022-12-11T21:43:26.635Z,12.23
2022-12-11T21:46:15.300Z,12.18
2022-12-11T21:49:02.481Z,12.63
2022-12-11T21:51:49.455Z,11.70
2022-12-11T21:54:36.539Z,12.30
2022-12-11T21:57:26.576Z,12.32
2022-12-11T22:00:14.342Z,12.07
2022-12-11T22:03:01.319Z,12.85
2022-12-11T22:05:48.200Z,12.35
2022-12-11T22:08:35.066Z,12.18
2022-12-11T22:11:25.947Z,11.95
2022-12-11T22:14:15.076Z,11.25
2022-12-11T22:17:04.700Z,12.45
2022-12-11T22:19:54.483Z,11.18
2022-12-11T22:22:41.402Z,12.55
2022-12-11T22:25:29.273Z,11.35
2022-12-11T22:28:16.109Z,12.27
2022-12-11T22:31:05.510Z,12.32
2022-12-11T22:33:53.879Z,13.23
2022-12-11T22:36:40.744Z,12.00
2022-12-11T22:39:27.642Z,13.02
2022-12-11T22:42:14.486Z,13.10
2022-12-11T22:45:01.506Z,13.02
2022-12-11T22:47:48.562Z,13.02
2022-12-11T22:50:39.572Z,12.57
2022-12-11T22:53:26.368Z,13.05
2022-12-11T22:56:14.044Z,12.20
2022-12-11T22:59:01.090Z,12.38
2022-12-11T23:01:48.670Z,13.30
2022-12-11T23:04:35.470Z,12.43
2022-12-11T23:07:22.330Z,12.50
2022-12-11T23:10:09.846Z,13.27
2022-12-11T23:12:57.368Z,12.43
2022-12-11T23:15:44.184Z,12.35
2022-12-11T23:18:32.586Z,13.23
2022-12-11T23:21:20.043Z,13.87
2022-12-11T23:24:07.660Z,13.68
2022-12-11T23:26:54.569Z,12.63
2022-12-11T23:29:44.600Z,13.52
2022-12-11T23:32:31.624Z,13.43
2022-12-11T23:35:18.654Z,12.65
2022-12-11T23:38:08.016Z,12.10
2022-12-11T23:43:45.145Z,12.27
2022-12-11T23:46:32.820Z,12.70
2022-12-11T23:49:19.815Z,12.77
2022-12-11T23:52:07.077Z,14.00
2022-12-11T23:54:57.034Z,11.38
2022-12-11T23:57:58.870Z,11.88
